sensor_id;sensor_type;location;lat;lon;timestamp;P1;durP1;ratioP1;P2;durP2;ratioP2
60060;SDS011;45933;51.336;12.612;2022-09-16T00:01:14;3.75;;;0.90;;
60060;SDS011;45933;51.336;12.612;2022-09-16T00:03:42;5.72;;;0.70;;
60060;SDS011;45933;51.336;12.612;2022-09-16T00:06:21;1.83;;;0.73;;
60060;SDS011;45933;51.336;12.612;2022-09-16T00:08:48;4.47;;;1.17;;
60060;SDS011;45933;51.336;12.612;2022-09-16T00:11:15;4.90;;;1.02;;
60060;SDS011;45933;51.336;12.612;2022-09-16T00:13:42;3.10;;;0.70;;
60060;SDS011;45933;51.336;12.612;2022-09-16T00:16:08;3.80;;;0.90;;
60060;SDS011;45933;51.336;12.612;2022-09-16T00:18:36;4.43;;;1.10;;
60060;SDS011;45933;51.336;12.612;2022-09-16T00:21:05;4.03;;;1.10;;
60060;SDS011;45933;51.336;12.612;2022-09-16T00:23:32;1.75;;;0.65;;
60060;SDS011;45933;51.336;12.612;2022-09-16T00:25:57;3.85;;;1.10;;
60060;SDS011;45933;51.336;12.612;2022-09-16T00:28:23;4.03;;;0.90;;
60060;SDS011;45933;51.336;12.612;2022-09-16T00:30:48;2.75;;;1.13;;
60060;SDS011;45933;51.336;12.612;2022-09-16T00:33:14;2.60;;;0.80;;
60060;SDS011;45933;51.336;12.612;2022-09-16T00:35:40;1.73;;;0.98;;
60060;SDS011;45933;51.336;12.612;2022-09-16T00:38:05;3.75;;;1.00;;
60060;SDS011;45933;51.336;12.612;2022-09-16T00:40:31;2.50;;;1.00;;
60060;SDS011;45933;51.336;12.612;2022-09-16T00:42:57;3.58;;;1.15;;
60060;SDS011;45933;51.336;12.612;2022-09-16T00:45:24;2.25;;;0.85;;
60060;SDS011;45933;51.336;12.612;2022-09-16T00:47:59;3.47;;;0.93;;
60060;SDS011;45933;51.336;12.612;2022-09-16T00:53:02;3.83;;;0.88;;
60060;SDS011;45933;51.336;12.612;2022-09-16T00:55:30;4.53;;;1.00;;
60060;SDS011;45933;51.336;12.612;2022-09-16T00:57:59;2.10;;;1.08;;
60060;SDS011;45933;51.336;12.612;2022-09-16T01:00:30;2.58;;;0.80;;
60060;SDS011;45933;51.336;12.612;2022-09-16T01:02:56;2.53;;;0.85;;
60060;SDS011;45933;51.336;12.612;2022-09-16T01:05:22;3.35;;;0.75;;
60060;SDS011;45933;51.336;12.612;2022-09-16T01:07:51;3.45;;;0.90;;
60060;SDS011;45933;51.336;12.612;2022-09-16T01:10:20;3.00;;;0.80;;
60060;SDS011;45933;51.336;12.612;2022-09-16T01:12:53;3.08;;;0.77;;
60060;SDS011;45933;51.336;12.612;2022-09-16T01:16:05;4.25;;;0.90;;
60060;SDS011;45933;51.336;12.612;2022-09-16T01:18:25;1.98;;;0.80;;
60060;SDS011;45933;51.336;12.612;2022-09-16T01:21:11;4.03;;;0.80;;
60060;SDS011;45933;51.336;12.612;2022-09-16T01:32:01;2.90;;;0.80;;
60060;SDS011;45933;51.336;12.612;2022-09-16T01:37:20;4.70;;;1.00;;
60060;SDS011;45933;51.336;12.612;2022-09-16T01:45:22;3.85;;;0.90;;
60060;SDS011;45933;51.336;12.612;2022-09-16T01:47:53;2.23;;;0.80;;
60060;SDS011;45933;51.336;12.612;2022-09-16T01:50:30;5.38;;;0.80;;
60060;SDS011;45933;51.336;12.612;2022-09-16T01:53:20;2.72;;;0.60;;
60060;SDS011;45933;51.336;12.612;2022-09-16T02:01:56;2.83;;;1.17;;
60060;SDS011;45933;51.336;12.612;2022-09-16T02:04:34;5.65;;;1.30;;
60060;SDS011;45933;51.336;12.612;2022-09-16T02:07:05;3.22;;;0.82;;
60060;SDS011;45933;51.336;12.612;2022-09-16T02:09:36;2.63;;;0.77;;
60060;SDS011;45933;51.336;12.612;2022-09-16T02:12:08;2.35;;;1.00;;
60060;SDS011;45933;51.336;12.612;2022-09-16T02:14:41;3.97;;;0.98;;
60060;SDS011;45933;51.336;12.612;2022-09-16T02:17:10;1.75;;;0.98;;
60060;SDS011;45933;51.336;12.612;2022-09-16T02:19:48;3.72;;;1.27;;
60060;SDS011;45933;51.336;12.612;2022-09-16T02:22:24;4.43;;;1.10;;
60060;SDS011;45933;51.336;12.612;2022-09-16T02:24:56;3.15;;;1.10;;
60060;SDS011;45933;51.336;12.612;2022-09-16T02:27:23;1.88;;;0.90;;
60060;SDS011;45933;51.336;12.612;2022-09-16T02:29:55;4.47;;;1.48;;
60060;SDS011;45933;51.336;12.612;2022-09-16T02:32:25;2.15;;;1.10;;
60060;SDS011;45933;51.336;12.612;2022-09-16T02:34:55;4.60;;;1.40;;
60060;SDS011;45933;51.336;12.612;2022-09-16T02:37:26;4.30;;;1.70;;
60060;SDS011;45933;51.336;12.612;2022-09-16T02:39:56;10.63;;;1.90;;
60060;SDS011;45933;51.336;12.612;2022-09-16T02:42:28;3.40;;;1.80;;
60060;SDS011;45933;51.336;12.612;2022-09-16T02:44:54;4.57;;;2.40;;
60060;SDS011;45933;51.336;12.612;2022-09-16T02:47:31;5.72;;;2.40;;
60060;SDS011;45933;51.336;12.612;2022-09-16T02:50:09;7.17;;;2.67;;
60060;SDS011;45933;51.336;12.612;2022-09-16T02:52:45;7.72;;;2.30;;
60060;SDS011;45933;51.336;12.612;2022-09-16T02:55:24;3.17;;;1.70;;
60060;SDS011;45933;51.336;12.612;2022-09-16T02:58:08;4.53;;;1.80;;
60060;SDS011;45933;51.336;12.612;2022-09-16T03:00:35;5.07;;;1.73;;
60060;SDS011;45933;51.336;12.612;2022-09-16T03:03:05;3.05;;;1.10;;
60060;SDS011;45933;51.336;12.612;2022-09-16T03:05:31;3.00;;;1.10;;
60060;SDS011;45933;51.336;12.612;2022-09-16T03:07:57;8.80;;;1.60;;
60060;SDS011;45933;51.336;12.612;2022-09-16T03:10:26;5.07;;;1.50;;
60060;SDS011;45933;51.336;12.612;2022-09-16T03:18:37;7.60;;;1.37;;
60060;SDS011;45933;51.336;12.612;2022-09-16T03:22:16;2.70;;;0.90;;
60060;SDS011;45933;51.336;12.612;2022-09-16T03:25:22;3.17;;;0.83;;
60060;SDS011;45933;51.336;12.612;2022-09-16T03:27:28;3.40;;;0.90;;
60060;SDS011;45933;51.336;12.612;2022-09-16T03:30:05;2.80;;;0.83;;
60060;SDS011;45933;51.336;12.612;2022-09-16T03:32:43;0.70;;;0.70;;
60060;SDS011;45933;51.336;12.612;2022-09-16T03:35:23;2.90;;;0.87;;
60060;SDS011;45933;51.336;12.612;2022-09-16T03:37:53;2.23;;;0.90;;
60060;SDS011;45933;51.336;12.612;2022-09-16T03:40:21;3.37;;;0.90;;
60060;SDS011;45933;51.336;12.612;2022-09-16T03:42:48;3.90;;;0.90;;
60060;SDS011;45933;51.336;12.612;2022-09-16T03:45:14;2.27;;;0.97;;
60060;SDS011;45933;51.336;12.612;2022-09-16T03:47:44;2.13;;;0.83;;
60060;SDS011;45933;51.336;12.612;2022-09-16T03:50:11;2.73;;;0.77;;
60060;SDS011;45933;51.336;12.612;2022-09-16T03:52:38;2.53;;;0.87;;
60060;SDS011;45933;51.336;12.612;2022-09-16T03:55:03;2.23;;;0.70;;
60060;SDS011;45933;51.336;12.612;2022-09-16T03:57:29;3.70;;;1.10;;
60060;SDS011;45933;51.336;12.612;2022-09-16T03:59:56;2.40;;;0.83;;
60060;SDS011;45933;51.336;12.612;2022-09-16T04:02:21;1.50;;;1.00;;
60060;SDS011;45933;51.336;12.612;2022-09-16T04:04:46;35.50;;;14.27;;
60060;SDS011;45933;51.336;12.612;2022-09-16T04:07:12;23.77;;;11.87;;
60060;SDS011;45933;51.336;12.612;2022-09-16T04:09:37;13.07;;;7.53;;
60060;SDS011;45933;51.336;12.612;2022-09-16T04:12:03;8.90;;;3.53;;
60060;SDS011;45933;51.336;12.612;2022-09-16T04:14:31;5.30;;;2.63;;
60060;SDS011;45933;51.336;12.612;2022-09-16T04:16:57;2.70;;;1.87;;
60060;SDS011;45933;51.336;12.612;2022-09-16T04:19:22;3.93;;;1.20;;
60060;SDS011;45933;51.336;12.612;2022-09-16T04:21:48;3.43;;;1.13;;
60060;SDS011;45933;51.336;12.612;2022-09-16T04:24:14;4.00;;;1.40;;
60060;SDS011;45933;51.336;12.612;2022-09-16T04:26:39;3.73;;;1.37;;
60060;SDS011;45933;51.336;12.612;2022-09-16T04:29:05;2.97;;;1.00;;
60060;SDS011;45933;51.336;12.612;2022-09-16T04:31:30;2.93;;;0.97;;
60060;SDS011;45933;51.336;12.612;2022-09-16T04:33:56;3.73;;;0.80;;
60060;SDS011;45933;51.336;12.612;2022-09-16T04:36:21;2.60;;;0.97;;
60060;SDS011;45933;51.336;12.612;2022-09-16T04:38:47;3.13;;;1.10;;
60060;SDS011;45933;51.336;12.612;2022-09-16T04:41:14;3.50;;;1.00;;
60060;SDS011;45933;51.336;12.612;2022-09-16T04:43:45;2.83;;;1.10;;
60060;SDS011;45933;51.336;12.612;2022-09-16T04:46:11;3.10;;;0.90;;
60060;SDS011;45933;51.336;12.612;2022-09-16T04:48:37;3.73;;;0.83;;
60060;SDS011;45933;51.336;12.612;2022-09-16T04:51:10;2.93;;;1.20;;
60060;SDS011;45933;51.336;12.612;2022-09-16T04:53:36;5.90;;;1.30;;
60060;SDS011;45933;51.336;12.612;2022-09-16T04:56:19;5.33;;;1.47;;
60060;SDS011;45933;51.336;12.612;2022-09-16T04:58:47;5.20;;;1.63;;
60060;SDS011;45933;51.336;12.612;2022-09-16T05:01:16;4.60;;;2.00;;
60060;SDS011;45933;51.336;12.612;2022-09-16T05:03:47;8.67;;;2.30;;
60060;SDS011;45933;51.336;12.612;2022-09-16T05:06:15;7.40;;;2.10;;
60060;SDS011;45933;51.336;12.612;2022-09-16T05:08:52;13.97;;;10.63;;
60060;SDS011;45933;51.336;12.612;2022-09-16T05:11:20;11.93;;;8.07;;
60060;SDS011;45933;51.336;12.612;2022-09-16T05:13:47;6.47;;;4.07;;
60060;SDS011;45933;51.336;12.612;2022-09-16T05:16:14;6.27;;;3.40;;
60060;SDS011;45933;51.336;12.612;2022-09-16T05:18:41;6.73;;;2.87;;
60060;SDS011;45933;51.336;12.612;2022-09-16T05:21:09;4.47;;;2.60;;
60060;SDS011;45933;51.336;12.612;2022-09-16T05:23:37;5.87;;;2.03;;
60060;SDS011;45933;51.336;12.612;2022-09-16T05:26:11;3.73;;;2.10;;
60060;SDS011;45933;51.336;12.612;2022-09-16T05:28:38;5.60;;;2.00;;
60060;SDS011;45933;51.336;12.612;2022-09-16T05:31:11;4.60;;;1.90;;
60060;SDS011;45933;51.336;12.612;2022-09-16T05:33:45;5.27;;;1.70;;
60060;SDS011;45933;51.336;12.612;2022-09-16T05:36:15;2.67;;;1.40;;
60060;SDS011;45933;51.336;12.612;2022-09-16T05:38:42;4.10;;;1.47;;
60060;SDS011;45933;51.336;12.612;2022-09-16T05:41:08;4.03;;;1.60;;
60060;SDS011;45933;51.336;12.612;2022-09-16T05:43:33;6.20;;;1.60;;
60060;SDS011;45933;51.336;12.612;2022-09-16T05:46:00;4.70;;;1.60;;
60060;SDS011;45933;51.336;12.612;2022-09-16T05:48:26;3.40;;;1.60;;
60060;SDS011;45933;51.336;12.612;2022-09-16T05:50:55;4.30;;;1.70;;
60060;SDS011;45933;51.336;12.612;2022-09-16T05:53:23;3.37;;;1.43;;
60060;SDS011;45933;51.336;12.612;2022-09-16T05:56:00;3.73;;;1.40;;
60060;SDS011;45933;51.336;12.612;2022-09-16T05:58:28;2.27;;;1.40;;
60060;SDS011;45933;51.336;12.612;2022-09-16T06:00:58;3.70;;;1.37;;
60060;SDS011;45933;51.336;12.612;2022-09-16T06:03:27;3.57;;;1.50;;
60060;SDS011;45933;51.336;12.612;2022-09-16T06:06:06;3.03;;;1.30;;
60060;SDS011;45933;51.336;12.612;2022-09-16T06:08:38;4.93;;;2.20;;
60060;SDS011;45933;51.336;12.612;2022-09-16T06:11:04;5.47;;;2.00;;
60060;SDS011;45933;51.336;12.612;2022-09-16T06:13:32;2.63;;;1.73;;
60060;SDS011;45933;51.336;12.612;2022-09-16T06:15:58;5.60;;;1.70;;
60060;SDS011;45933;51.336;12.612;2022-09-16T06:18:24;3.08;;;1.40;;
60060;SDS011;45933;51.336;12.612;2022-09-16T06:20:51;5.10;;;1.65;;
60060;SDS011;45933;51.336;12.612;2022-09-16T06:23:17;4.47;;;1.30;;
60060;SDS011;45933;51.336;12.612;2022-09-16T06:25:44;5.05;;;1.63;;
60060;SDS011;45933;51.336;12.612;2022-09-16T06:28:09;3.67;;;1.52;;
60060;SDS011;45933;51.336;12.612;2022-09-16T06:30:36;2.25;;;0.90;;
60060;SDS011;45933;51.336;12.612;2022-09-16T06:33:02;3.40;;;0.90;;
60060;SDS011;45933;51.336;12.612;2022-09-16T06:35:28;4.60;;;1.27;;
60060;SDS011;45933;51.336;12.612;2022-09-16T06:37:53;2.35;;;1.00;;
60060;SDS011;45933;51.336;12.612;2022-09-16T06:40:19;3.53;;;1.40;;
60060;SDS011;45933;51.336;12.612;2022-09-16T06:42:44;5.45;;;1.83;;
60060;SDS011;45933;51.336;12.612;2022-09-16T06:45:10;2.78;;;1.23;;
60060;SDS011;45933;51.336;12.612;2022-09-16T06:47:36;2.85;;;0.80;;
60060;SDS011;45933;51.336;12.612;2022-09-16T06:50:01;2.95;;;1.02;;
60060;SDS011;45933;51.336;12.612;2022-09-16T06:52:28;3.10;;;1.30;;
60060;SDS011;45933;51.336;12.612;2022-09-16T06:54:54;3.33;;;1.08;;
60060;SDS011;45933;51.336;12.612;2022-09-16T06:57:20;1.67;;;0.82;;
60060;SDS011;45933;51.336;12.612;2022-09-16T06:59:50;4.35;;;0.93;;
60060;SDS011;45933;51.336;12.612;2022-09-16T07:02:17;3.63;;;1.08;;
60060;SDS011;45933;51.336;12.612;2022-09-16T07:04:43;2.85;;;0.80;;
60060;SDS011;45933;51.336;12.612;2022-09-16T07:07:10;4.68;;;1.05;;
60060;SDS011;45933;51.336;12.612;2022-09-16T07:09:36;4.13;;;1.35;;
60060;SDS011;45933;51.336;12.612;2022-09-16T07:12:01;4.82;;;1.05;;
60060;SDS011;45933;51.336;12.612;2022-09-16T07:14:27;2.58;;;1.10;;
60060;SDS011;45933;51.336;12.612;2022-09-16T07:16:53;4.28;;;0.98;;
60060;SDS011;45933;51.336;12.612;2022-09-16T07:19:19;3.25;;;1.00;;
60060;SDS011;45933;51.336;12.612;2022-09-16T07:21:44;1.70;;;0.75;;
60060;SDS011;45933;51.336;12.612;2022-09-16T07:24:10;3.08;;;1.13;;
60060;SDS011;45933;51.336;12.612;2022-09-16T07:26:37;7.25;;;0.95;;
60060;SDS011;45933;51.336;12.612;2022-09-16T07:29:05;3.33;;;0.90;;
60060;SDS011;45933;51.336;12.612;2022-09-16T07:31:34;3.90;;;0.90;;
60060;SDS011;45933;51.336;12.612;2022-09-16T07:34:01;1.17;;;0.60;;
60060;SDS011;45933;51.336;12.612;2022-09-16T07:36:29;3.17;;;0.70;;
60060;SDS011;45933;51.336;12.612;2022-09-16T07:38:59;2.83;;;0.70;;
60060;SDS011;45933;51.336;12.612;2022-09-16T07:41:26;1.52;;;0.88;;
60060;SDS011;45933;51.336;12.612;2022-09-16T07:43:56;2.13;;;0.70;;
60060;SDS011;45933;51.336;12.612;2022-09-16T07:46:23;2.20;;;0.80;;
60060;SDS011;45933;51.336;12.612;2022-09-16T07:48:50;2.50;;;0.70;;
60060;SDS011;45933;51.336;12.612;2022-09-16T07:51:20;5.20;;;0.73;;
60060;SDS011;45933;51.336;12.612;2022-09-16T07:53:48;2.42;;;0.80;;
60060;SDS011;45933;51.336;12.612;2022-09-16T07:56:19;3.53;;;0.70;;
60060;SDS011;45933;51.336;12.612;2022-09-16T07:58:47;1.92;;;0.60;;
60060;SDS011;45933;51.336;12.612;2022-09-16T08:01:13;2.90;;;0.85;;
60060;SDS011;45933;51.336;12.612;2022-09-16T08:03:40;3.03;;;0.85;;
60060;SDS011;45933;51.336;12.612;2022-09-16T08:06:08;3.25;;;1.05;;
60060;SDS011;45933;51.336;12.612;2022-09-16T08:08:36;2.33;;;0.90;;
60060;SDS011;45933;51.336;12.612;2022-09-16T08:11:02;4.45;;;0.80;;
60060;SDS011;45933;51.336;12.612;2022-09-16T08:13:29;1.23;;;0.90;;
60060;SDS011;45933;51.336;12.612;2022-09-16T08:15:58;2.22;;;1.05;;
60060;SDS011;45933;51.336;12.612;2022-09-16T08:18:25;3.55;;;0.75;;
60060;SDS011;45933;51.336;12.612;2022-09-16T08:20:51;1.42;;;0.88;;
60060;SDS011;45933;51.336;12.612;2022-09-16T08:23:16;5.38;;;0.95;;
60060;SDS011;45933;51.336;12.612;2022-09-16T08:25:42;1.20;;;0.80;;
60060;SDS011;45933;51.336;12.612;2022-09-16T08:28:11;1.55;;;0.80;;
60060;SDS011;45933;51.336;12.612;2022-09-16T08:30:40;1.63;;;0.80;;
60060;SDS011;45933;51.336;12.612;2022-09-16T08:33:06;4.18;;;0.90;;
60060;SDS011;45933;51.336;12.612;2022-09-16T08:35:32;4.68;;;1.02;;
60060;SDS011;45933;51.336;12.612;2022-09-16T08:37:58;2.55;;;1.20;;
60060;SDS011;45933;51.336;12.612;2022-09-16T08:40:23;2.30;;;1.00;;
60060;SDS011;45933;51.336;12.612;2022-09-16T08:51:07;3.53;;;1.05;;
60060;SDS011;45933;51.336;12.612;2022-09-16T08:53:38;2.97;;;1.08;;
60060;SDS011;45933;51.336;12.612;2022-09-16T08:56:13;1.15;;;0.70;;
60060;SDS011;45933;51.336;12.612;2022-09-16T08:58:43;1.13;;;0.77;;
60060;SDS011;45933;51.336;12.612;2022-09-16T09:04:02;1.80;;;0.65;;
60060;SDS011;45933;51.336;12.612;2022-09-16T09:09:32;7.70;;;1.15;;
60060;SDS011;45933;51.336;12.612;2022-09-16T09:28:22;3.40;;;0.90;;
60060;SDS011;45933;51.336;12.612;2022-09-16T09:34:09;3.25;;;0.80;;
60060;SDS011;45933;51.336;12.612;2022-09-16T09:42:34;2.67;;;0.80;;
60060;SDS011;45933;51.336;12.612;2022-09-16T09:45:16;2.55;;;0.80;;
60060;SDS011;45933;51.336;12.612;2022-09-16T09:47:47;1.90;;;0.98;;
60060;SDS011;45933;51.336;12.612;2022-09-16T09:50:27;3.17;;;1.00;;
60060;SDS011;45933;51.336;12.612;2022-09-16T09:53:11;2.42;;;0.63;;
60060;SDS011;45933;51.336;12.612;2022-09-16T09:55:42;2.92;;;0.50;;
60060;SDS011;45933;51.336;12.612;2022-09-16T09:58:19;1.33;;;0.60;;
60060;SDS011;45933;51.336;12.612;2022-09-16T10:01:11;2.75;;;1.02;;
60060;SDS011;45933;51.336;12.612;2022-09-16T10:03:37;4.35;;;1.20;;
60060;SDS011;45933;51.336;12.612;2022-09-16T10:06:04;2.55;;;0.90;;
60060;SDS011;45933;51.336;12.612;2022-09-16T10:08:46;1.45;;;0.70;;
60060;SDS011;45933;51.336;12.612;2022-09-16T10:11:16;2.03;;;0.75;;
60060;SDS011;45933;51.336;12.612;2022-09-16T10:13:56;1.85;;;0.73;;
60060;SDS011;45933;51.336;12.612;2022-09-16T10:16:25;2.67;;;0.60;;
60060;SDS011;45933;51.336;12.612;2022-09-16T10:18:55;1.67;;;0.55;;
60060;SDS011;45933;51.336;12.612;2022-09-16T10:21:36;2.20;;;0.60;;
60060;SDS011;45933;51.336;12.612;2022-09-16T10:24:04;2.22;;;0.60;;
60060;SDS011;45933;51.336;12.612;2022-09-16T10:26:30;1.02;;;0.50;;
60060;SDS011;45933;51.336;12.612;2022-09-16T10:29:15;0.80;;;0.50;;
60060;SDS011;45933;51.336;12.612;2022-09-16T10:31:43;0.80;;;0.40;;
60060;SDS011;45933;51.336;12.612;2022-09-16T10:34:16;1.70;;;0.57;;
60060;SDS011;45933;51.336;12.612;2022-09-16T10:36:42;1.98;;;1.05;;
60060;SDS011;45933;51.336;12.612;2022-09-16T10:39:18;1.27;;;0.70;;
60060;SDS011;45933;51.336;12.612;2022-09-16T10:41:47;1.30;;;0.80;;
60060;SDS011;45933;51.336;12.612;2022-09-16T10:44:20;1.92;;;0.70;;
60060;SDS011;45933;51.336;12.612;2022-09-16T10:46:53;0.63;;;0.57;;
60060;SDS011;45933;51.336;12.612;2022-09-16T10:49:20;1.23;;;0.60;;
60060;SDS011;45933;51.336;12.612;2022-09-16T10:51:51;2.38;;;0.70;;
60060;SDS011;45933;51.336;12.612;2022-09-16T10:54:26;2.42;;;0.60;;
60060;SDS011;45933;51.336;12.612;2022-09-16T10:56:52;1.73;;;0.50;;
60060;SDS011;45933;51.336;12.612;2022-09-16T10:59:18;2.35;;;0.55;;
60060;SDS011;45933;51.336;12.612;2022-09-16T11:10:04;2.70;;;0.80;;
60060;SDS011;45933;51.336;12.612;2022-09-16T11:25:55;1.88;;;1.10;;
60060;SDS011;45933;51.336;12.612;2022-09-16T11:31:39;2.70;;;1.15;;
60060;SDS011;45933;51.336;12.612;2022-09-16T11:34:18;2.28;;;0.88;;
60060;SDS011;45933;51.336;12.612;2022-09-16T11:42:28;2.10;;;0.50;;
60060;SDS011;45933;51.336;12.612;2022-09-16T11:45:16;2.15;;;0.60;;
60060;SDS011;45933;51.336;12.612;2022-09-16T11:56:16;2.25;;;0.60;;
60060;SDS011;45933;51.336;12.612;2022-09-16T11:58:50;1.88;;;0.80;;
60060;SDS011;45933;51.336;12.612;2022-09-16T12:01:34;0.65;;;0.30;;
60060;SDS011;45933;51.336;12.612;2022-09-16T12:04:06;1.02;;;0.55;;
60060;SDS011;45933;51.336;12.612;2022-09-16T12:06:53;2.53;;;0.65;;
60060;SDS011;45933;51.336;12.612;2022-09-16T12:12:35;2.38;;;0.73;;
60060;SDS011;45933;51.336;12.612;2022-09-16T12:15:46;2.72;;;0.88;;
60060;SDS011;45933;51.336;12.612;2022-09-16T12:17:57;0.47;;;0.40;;
60060;SDS011;45933;51.336;12.612;2022-09-16T12:20:36;1.25;;;0.80;;
60060;SDS011;45933;51.336;12.612;2022-09-16T12:25:43;3.13;;;0.60;;
60060;SDS011;45933;51.336;12.612;2022-09-16T12:28:19;1.15;;;0.50;;
60060;SDS011;45933;51.336;12.612;2022-09-16T12:31:02;2.67;;;0.60;;
60060;SDS011;45933;51.336;12.612;2022-09-16T12:33:39;1.13;;;0.60;;
60060;SDS011;45933;51.336;12.612;2022-09-16T12:36:10;1.23;;;0.70;;
60060;SDS011;45933;51.336;12.612;2022-09-16T12:38:39;1.45;;;0.80;;
60060;SDS011;45933;51.336;12.612;2022-09-16T13:03:38;0.55;;;0.30;;
60060;SDS011;45933;51.336;12.612;2022-09-16T13:06:29;0.70;;;0.40;;
60060;SDS011;45933;51.336;12.612;2022-09-16T13:08:55;0.80;;;0.50;;
60060;SDS011;45933;51.336;12.612;2022-09-16T13:11:24;0.85;;;0.30;;
60060;SDS011;45933;51.336;12.612;2022-09-16T13:13:54;1.17;;;0.43;;
60060;SDS011;45933;51.336;12.612;2022-09-16T13:16:31;0.50;;;0.50;;
60060;SDS011;45933;51.336;12.612;2022-09-16T13:19:23;0.55;;;0.38;;
60060;SDS011;45933;51.336;12.612;2022-09-16T13:22:11;1.17;;;0.38;;
60060;SDS011;45933;51.336;12.612;2022-09-16T13:24:52;1.65;;;0.50;;
60060;SDS011;45933;51.336;12.612;2022-09-16T13:30:04;1.92;;;0.52;;
60060;SDS011;45933;51.336;12.612;2022-09-16T13:32:38;1.00;;;0.40;;
60060;SDS011;45933;51.336;12.612;2022-09-16T13:37:45;1.67;;;0.80;;
60060;SDS011;45933;51.336;12.612;2022-09-16T13:40:19;1.85;;;0.77;;
60060;SDS011;45933;51.336;12.612;2022-09-16T13:42:45;2.00;;;0.70;;
60060;SDS011;45933;51.336;12.612;2022-09-16T13:48:12;2.33;;;0.63;;
60060;SDS011;45933;51.336;12.612;2022-09-16T13:50:42;0.95;;;0.70;;
60060;SDS011;45933;51.336;12.612;2022-09-16T13:55:59;3.20;;;0.60;;
60060;SDS011;45933;51.336;12.612;2022-09-16T13:58:34;1.83;;;0.60;;
60060;SDS011;45933;51.336;12.612;2022-09-16T14:01:06;1.70;;;0.70;;
60060;SDS011;45933;51.336;12.612;2022-09-16T14:03:41;1.35;;;0.40;;
60060;SDS011;45933;51.336;12.612;2022-09-16T14:06:36;2.58;;;0.52;;
60060;SDS011;45933;51.336;12.612;2022-09-16T14:14:41;2.38;;;0.50;;
60060;SDS011;45933;51.336;12.612;2022-09-16T14:17:15;5.97;;;0.70;;
60060;SDS011;45933;51.336;12.612;2022-09-16T14:19:44;2.28;;;0.60;;
60060;SDS011;45933;51.336;12.612;2022-09-16T14:22:16;1.15;;;0.40;;
60060;SDS011;45933;51.336;12.612;2022-09-16T14:24:45;1.55;;;0.40;;
60060;SDS011;45933;51.336;12.612;2022-09-16T14:27:22;3.15;;;1.00;;
60060;SDS011;45933;51.336;12.612;2022-09-16T14:29:56;2.60;;;0.70;;
60060;SDS011;45933;51.336;12.612;2022-09-16T14:32:23;0.95;;;0.40;;
60060;SDS011;45933;51.336;12.612;2022-09-16T14:34:51;1.42;;;0.43;;
60060;SDS011;45933;51.336;12.612;2022-09-16T14:37:20;1.17;;;0.50;;
60060;SDS011;45933;51.336;12.612;2022-09-16T14:39:48;0.85;;;0.50;;
60060;SDS011;45933;51.336;12.612;2022-09-16T14:42:17;2.22;;;0.73;;
60060;SDS011;45933;51.336;12.612;2022-09-16T14:44:46;1.20;;;0.60;;
60060;SDS011;45933;51.336;12.612;2022-09-16T14:47:20;3.42;;;0.70;;
60060;SDS011;45933;51.336;12.612;2022-09-16T14:49:55;2.97;;;0.70;;
60060;SDS011;45933;51.336;12.612;2022-09-16T14:52:32;1.73;;;0.70;;
60060;SDS011;45933;51.336;12.612;2022-09-16T14:54:59;1.35;;;0.60;;
60060;SDS011;45933;51.336;12.612;2022-09-16T14:57:28;0.77;;;0.57;;
60060;SDS011;45933;51.336;12.612;2022-09-16T14:59:55;1.55;;;0.47;;
60060;SDS011;45933;51.336;12.612;2022-09-16T15:05:24;2.35;;;0.70;;
60060;SDS011;45933;51.336;12.612;2022-09-16T15:07:52;1.60;;;0.60;;
60060;SDS011;45933;51.336;12.612;2022-09-16T15:10:27;2.25;;;0.75;;
60060;SDS011;45933;51.336;12.612;2022-09-16T15:12:54;1.50;;;0.60;;
60060;SDS011;45933;51.336;12.612;2022-09-16T15:15:24;2.30;;;0.75;;
60060;SDS011;45933;51.336;12.612;2022-09-16T15:17:55;1.65;;;0.65;;
60060;SDS011;45933;51.336;12.612;2022-09-16T15:20:26;2.13;;;0.57;;
60060;SDS011;45933;51.336;12.612;2022-09-16T15:22:54;2.38;;;0.73;;
60060;SDS011;45933;51.336;12.612;2022-09-16T15:25:21;2.33;;;0.70;;
60060;SDS011;45933;51.336;12.612;2022-09-16T15:27:49;3.92;;;0.82;;
60060;SDS011;45933;51.336;12.612;2022-09-16T15:30:22;1.17;;;0.45;;
60060;SDS011;45933;51.336;12.612;2022-09-16T15:32:49;1.75;;;0.52;;
60060;SDS011;45933;51.336;12.612;2022-09-16T15:35:25;2.35;;;0.73;;
60060;SDS011;45933;51.336;12.612;2022-09-16T15:38:09;2.80;;;0.70;;
60060;SDS011;45933;51.336;12.612;2022-09-16T15:40:36;2.47;;;1.02;;
60060;SDS011;45933;51.336;12.612;2022-09-16T15:45:42;5.35;;;0.80;;
60060;SDS011;45933;51.336;12.612;2022-09-16T15:48:17;1.75;;;0.68;;
60060;SDS011;45933;51.336;12.612;2022-09-16T15:50:50;5.35;;;1.23;;
60060;SDS011;45933;51.336;12.612;2022-09-16T16:01:08;1.83;;;0.80;;
60060;SDS011;45933;51.336;12.612;2022-09-16T16:03:52;5.03;;;1.20;;
60060;SDS011;45933;51.336;12.612;2022-09-16T16:06:23;2.95;;;1.10;;
60060;SDS011;45933;51.336;12.612;2022-09-16T16:14:20;2.25;;;1.08;;
60060;SDS011;45933;51.336;12.612;2022-09-16T16:16:46;3.15;;;1.10;;
60060;SDS011;45933;51.336;12.612;2022-09-16T16:19:12;4.05;;;1.85;;
60060;SDS011;45933;51.336;12.612;2022-09-16T16:21:38;3.75;;;1.50;;
60060;SDS011;45933;51.336;12.612;2022-09-16T16:24:10;2.10;;;0.70;;
60060;SDS011;45933;51.336;12.612;2022-09-16T16:26:39;2.80;;;1.08;;
60060;SDS011;45933;51.336;12.612;2022-09-16T16:29:05;2.70;;;0.75;;
60060;SDS011;45933;51.336;12.612;2022-09-16T16:31:30;1.30;;;0.50;;
60060;SDS011;45933;51.336;12.612;2022-09-16T16:33:56;3.05;;;0.80;;
60060;SDS011;45933;51.336;12.612;2022-09-16T16:36:22;1.92;;;0.90;;
60060;SDS011;45933;51.336;12.612;2022-09-16T16:38:47;2.67;;;0.80;;
60060;SDS011;45933;51.336;12.612;2022-09-16T16:41:19;2.88;;;1.20;;
60060;SDS011;45933;51.336;12.612;2022-09-16T16:43:46;3.38;;;0.85;;
60060;SDS011;45933;51.336;12.612;2022-09-16T16:46:12;2.53;;;1.27;;
60060;SDS011;45933;51.336;12.612;2022-09-16T16:48:37;3.85;;;1.30;;
60060;SDS011;45933;51.336;12.612;2022-09-16T16:51:07;3.13;;;0.80;;
60060;SDS011;45933;51.336;12.612;2022-09-16T16:53:34;3.22;;;0.80;;
60060;SDS011;45933;51.336;12.612;2022-09-16T16:56:04;4.82;;;0.85;;
60060;SDS011;45933;51.336;12.612;2022-09-16T16:58:31;4.28;;;1.60;;
60060;SDS011;45933;51.336;12.612;2022-09-16T17:01:09;3.33;;;1.77;;
60060;SDS011;45933;51.336;12.612;2022-09-16T17:03:37;3.10;;;1.50;;
60060;SDS011;45933;51.336;12.612;2022-09-16T17:06:03;2.55;;;1.50;;
60060;SDS011;45933;51.336;12.612;2022-09-16T17:08:28;3.17;;;1.38;;
60060;SDS011;45933;51.336;12.612;2022-09-16T17:13:50;3.13;;;1.17;;
60060;SDS011;45933;51.336;12.612;2022-09-16T17:16:17;1.88;;;1.08;;
60060;SDS011;45933;51.336;12.612;2022-09-16T17:18:45;6.18;;;1.40;;
60060;SDS011;45933;51.336;12.612;2022-09-16T17:21:15;4.63;;;1.08;;
60060;SDS011;45933;51.336;12.612;2022-09-16T17:23:43;3.28;;;1.20;;
60060;SDS011;45933;51.336;12.612;2022-09-16T17:26:09;2.75;;;1.08;;
60060;SDS011;45933;51.336;12.612;2022-09-16T17:28:35;2.28;;;1.05;;
60060;SDS011;45933;51.336;12.612;2022-09-16T17:31:13;3.00;;;1.13;;
60060;SDS011;45933;51.336;12.612;2022-09-16T17:33:40;2.75;;;1.10;;
60060;SDS011;45933;51.336;12.612;2022-09-16T17:36:06;2.55;;;1.10;;
60060;SDS011;45933;51.336;12.612;2022-09-16T17:38:33;6.00;;;1.05;;
60060;SDS011;45933;51.336;12.612;2022-09-16T17:41:09;3.25;;;1.10;;
60060;SDS011;45933;51.336;12.612;2022-09-16T17:43:37;3.30;;;1.60;;
60060;SDS011;45933;51.336;12.612;2022-09-16T17:46:04;4.35;;;1.75;;
60060;SDS011;45933;51.336;12.612;2022-09-16T17:48:31;4.00;;;1.50;;